Pagina principale
METAR-TAF:

METAR-TAF

Aeroporti :

Aeroporto di Ajaccio Napoleone Bonaparte

Ajaccio, Francia

latitudine: 41-55N, longitudine: 008-48E, altezza: 6 m

Osservazione

Il bollettino è stato emesso 15 minuti fa, alle 02:30 UTC
Vento 5 kt da nord-est
Temperature 16°C
Umidità 77%
Pressione 1013 hPa
Visibilità 10 km o più
nessuna nube inferiore a 1500 m e nessun cumulonembo

METAR: LFKJ 190230Z AUTO 04005KT CAVOK 16/12 Q1013 NOSIG

Ora: 04:45 (02:45 UTC)

Previsione

Il bollettino è stato emesso 45 minuti fa, alle 02:00 UTC
Previsione valida dal 19 alle 03 UTC al 20 alle 03 UTC
Vento 5 kt da est/nord-est
Visibilità 10 km o più
nessuna nube inferiore a 1500 m e nessun cumulonembo
Evoluzione graduale
dal 19 alle 08 UTC al 19 alle 10 UTC
Vento 10 kt da sud-ovest
Evoluzione graduale
dal 19 alle 18 UTC al 19 alle 20 UTC
Vento 4 kt da nord-est

TAF: LFKJ 190200Z 1903/2003 06005KT CAVOK BECMG 1908/1910 23010KT BECMG 1918/1920 05004KT

Osservazioni e previsioni meteorologiche di più di 4000 aeroporti (messaggi METAR e TAF).

Le stazioni disponibili sono rappresentate dai dischi gialli e rossi sulla carta.

Puntare il mouse per vedere il nome della stazione.

Clicca sopra per visualizzare le osservazioni e previsioni meteorologiche.

Per cambiare la mappa : fare clic sui pulsanti verdi con una croce nera per ingrandire, il pulsante verde con un trattino per diminuire, o sulla freccia verde per le mappe adiacenti.


METAR-TAF: